Time;durP1;ratioP1;P1;durP2;ratioP2;P2;SDS_P1;SDS_P2;PMS_P1;PMS_P2;Temp;Humidity;BMP_temperature;BMP_pressure;BME280_temperature;BME280_humidity;BME280_pressure;Samples;Min_cycle;Max_cycle;Signal;HPM_P1;HPM_P2
2023/03/07 00:00:23;;;;;;;39.16;19.92;;;1.90;99.90;;;;;;4907547;28;10000601;-73
2023/03/07 00:03:00;;;;;;;35.55;18.67;;;1.90;99.90;;;;;;5045749;28;20226;-73
2023/03/07 00:05:34;;;;;;;37.60;19.70;;;2.00;99.90;;;;;;5029903;28;20033;-73
2023/03/07 00:08:09;;;;;;;35.42;18.77;;;2.00;99.90;;;;;;5042005;28;20116;-73
2023/03/07 00:10:45;;;;;;;36.55;19.10;;;2.00;99.90;;;;;;5039546;28;20100;-73
2023/03/07 00:13:19;;;;;;;36.55;19.02;;;1.90;99.90;;;;;;5048233;28;20029;-74
2023/03/07 00:15:52;;;;;;;34.78;18.10;;;2.00;99.90;;;;;;5048393;28;20029;-72
2023/03/07 00:18:21;;;;;;;38.53;19.55;;;1.90;99.90;;;;;;5046632;28;20045;-73
2023/03/07 00:21:08;;;;;;;40.50;18.95;;;1.90;99.90;;;;;;5042378;28;20508;-73
2023/03/07 00:23:38;;;;;;;37.40;18.67;;;1.90;99.90;;;;;;5031407;28;20061;-73
2023/03/07 00:26:16;;;;;;;37.60;18.98;;;1.90;99.90;;;;;;5029001;28;20068;-73
2023/03/07 00:28:49;;;;;;;40.05;20.20;;;1.90;99.90;;;;;;5043409;28;20037;-73
2023/03/07 00:31:24;;;;;;;37.30;19.20;;;1.90;99.90;;;;;;5047686;28;20037;-73
2023/03/07 00:33:58;;;;;;;38.13;19.63;;;1.90;99.90;;;;;;5045915;28;20056;-73
2023/03/07 00:36:34;;;;;;;36.88;18.60;;;1.80;99.90;;;;;;5039131;28;20056;-73
2023/03/07 00:39:08;;;;;;;38.75;19.55;;;1.80;99.90;;;;;;5033470;28;20513;-73
2023/03/07 00:41:46;;;;;;;40.22;19.15;;;1.80;99.90;;;;;;5041196;28;20033;-73
2023/03/07 00:44:16;;;;;;;39.67;19.70;;;1.80;99.90;;;;;;5044226;28;20509;-73
2023/03/07 00:46:51;;;;;;;37.15;19.23;;;1.70;99.90;;;;;;5047262;28;20051;-73
2023/03/07 00:49:19;;;;;;;39.60;19.55;;;1.80;99.90;;;;;;5033863;28;20033;-73
2023/03/07 00:51:53;;;;;;;38.95;18.75;;;1.80;99.90;;;;;;5038300;28;20100;-73
2023/03/07 00:54:19;;;;;;;41.50;19.65;;;1.70;99.90;;;;;;5049927;28;20017;-73
2023/03/07 00:56:53;;;;;;;38.35;19.20;;;1.70;99.90;;;;;;5050441;28;20087;-73
2023/03/07 00:59:19;;;;;;;38.03;19.55;;;1.60;99.90;;;;;;5051040;28;20047;-73
2023/03/07 01:01:51;;;;;;;39.58;19.88;;;1.60;99.90;;;;;;5049853;28;20025;-73
2023/03/07 01:04:24;;;;;;;39.00;19.90;;;1.60;99.90;;;;;;5045912;28;20041;-73
2023/03/07 01:06:56;;;;;;;43.33;21.05;;;1.60;99.90;;;;;;5038294;28;20279;-73
2023/03/07 01:09:23;;;;;;;44.05;21.45;;;1.60;99.90;;;;;;5041154;28;20095;-73
2023/03/07 01:11:55;;;;;;;40.85;20.90;;;1.50;99.90;;;;;;5039078;28;20028;-73
2023/03/07 01:14:26;;;;;;;39.97;19.87;;;1.50;99.90;;;;;;5047942;28;20025;-73
2023/03/07 01:17:02;;;;;;;40.25;20.80;;;1.50;99.90;;;;;;5051773;28;20407;-73
2023/03/07 01:19:29;;;;;;;40.45;19.95;;;1.50;99.90;;;;;;5049518;28;20107;-73
2023/03/07 01:22:02;;;;;;;44.33;20.92;;;1.50;99.90;;;;;;5048418;28;20267;-73
2023/03/07 01:24:29;;;;;;;42.17;21.33;;;1.50;99.90;;;;;;5031917;28;20049;-73
2023/03/07 01:27:06;;;;;;;44.20;22.00;;;1.50;99.90;;;;;;5030953;28;20080;-73
2023/03/07 01:29:33;;;;;;;45.95;21.67;;;1.40;99.90;;;;;;5047319;28;20033;-73
2023/03/07 01:32:03;;;;;;;44.40;21.15;;;1.40;99.90;;;;;;5047429;28;20090;-73
2023/03/07 01:34:32;;;;;;;47.85;22.20;;;1.40;99.90;;;;;;5041981;28;20461;-73
2023/03/07 01:37:06;;;;;;;42.88;21.40;;;1.40;99.90;;;;;;5056370;28;20049;-73
2023/03/07 01:39:33;;;;;;;46.72;22.73;;;1.40;99.90;;;;;;5067119;28;20052;-73
2023/03/07 01:41:59;;;;;;;51.45;23.52;;;1.40;99.90;;;;;;5061008;28;20067;-73
2023/03/07 01:44:25;;;;;;;47.97;23.75;;;1.40;99.90;;;;;;5041168;28;20221;-73
2023/03/07 01:46:59;;;;;;;45.65;23.30;;;1.40;99.90;;;;;;5044773;28;20059;-72
2023/03/07 01:49:36;;;;;;;47.63;22.83;;;1.40;99.90;;;;;;5035198;28;20468;-73
2023/03/07 01:52:27;;;;;;;49.55;23.42;;;1.30;99.90;;;;;;5049635;28;20033;-73
2023/03/07 01:55:04;;;;;;;52.45;24.42;;;1.30;99.90;;;;;;5041010;28;20503;-73
2023/03/07 01:57:41;;;;;;;47.92;24.15;;;1.30;99.90;;;;;;5059067;28;20523;-73
2023/03/07 02:00:17;;;;;;;49.60;23.90;;;1.30;99.90;;;;;;5039684;28;20104;-73
2023/03/07 02:03:12;;;;;;;51.05;23.80;;;1.30;99.90;;;;;;5040980;28;20033;-73
2023/03/07 02:06:01;;;;;;;53.20;24.50;;;1.30;99.90;;;;;;5053508;28;20032;-73
2023/03/07 02:08:40;;;;;;;52.00;25.27;;;1.30;99.90;;;;;;5039637;28;20037;-73
2023/03/07 02:11:19;;;;;;;56.70;26.73;;;1.30;99.90;;;;;;5057539;28;20036;-73
2023/03/07 02:13:46;;;;;;;50.20;23.42;;;1.30;99.90;;;;;;5054513;28;20059;-73
2023/03/07 02:16:17;;;;;;;49.92;24.75;;;1.30;99.90;;;;;;5052437;28;20040;-73
2023/03/07 02:18:52;;;;;;;52.40;24.95;;;1.30;99.90;;;;;;5056705;28;20040;-73
2023/03/07 02:21:42;;;;;;;53.05;26.33;;;1.40;99.90;;;;;;5060445;28;20639;-73
2023/03/07 02:24:27;;;;;;;51.70;24.42;;;1.30;99.90;;;;;;5052110;28;20048;-73
2023/03/07 02:27:04;;;;;;;52.65;24.77;;;1.40;99.90;;;;;;5044422;28;20026;-73
2023/03/07 02:29:35;;;;;;;51.25;24.90;;;1.40;99.90;;;;;;5047781;28;20486;-73
2023/03/07 02:32:11;;;;;;;52.15;24.98;;;1.40;99.90;;;;;;5047650;28;20112;-73
2023/03/07 02:34:42;;;;;;;49.80;25.10;;;1.40;99.90;;;;;;5059623;28;20480;-73
2023/03/07 02:37:35;;;;;;;55.47;25.52;;;1.40;99.90;;;;;;5041919;28;20036;-73
2023/03/07 02:40:06;;;;;;;51.97;25.42;;;1.40;99.90;;;;;;5053699;28;20025;-73
2023/03/07 02:42:44;;;;;;;51.40;25.20;;;1.40;99.90;;;;;;5051892;28;20033;-73
2023/03/07 02:45:16;;;;;;;54.63;24.73;;;1.40;99.90;;;;;;5063104;28;20070;-73
2023/03/07 02:47:49;;;;;;;51.75;24.55;;;1.40;99.90;;;;;;5059155;28;20566;-73
2023/03/07 02:50:20;;;;;;;55.40;25.42;;;1.40;99.90;;;;;;5053978;28;20040;-72
2023/03/07 02:52:53;;;;;;;53.33;25.63;;;1.40;99.90;;;;;;5048776;28;20040;-73
2023/03/07 02:55:24;;;;;;;;;;;1.40;99.90;;;;;;5053799;28;20044;-72
2023/03/07 02:57:50;;;;;;;51.22;24.10;;;1.30;99.90;;;;;;5058594;28;20272;-73
2023/03/07 03:00:17;;;;;;;51.92;25.05;;;1.40;99.90;;;;;;5053202;28;20029;-73
2023/03/07 03:02:51;;;;;;;54.00;26.60;;;1.40;99.90;;;;;;5056615;28;20528;-73
2023/03/07 03:05:22;;;;;;;60.28;26.20;;;1.40;99.90;;;;;;5061074;28;20032;-72
2023/03/07 03:07:56;;;;;;;57.20;26.67;;;1.40;99.90;;;;;;5046666;28;20041;-73
2023/03/07 03:10:25;;;;;;;53.55;25.92;;;1.40;99.90;;;;;;5044701;28;20045;-73
2023/03/07 03:12:51;;;;;;;50.90;25.33;;;1.40;99.90;;;;;;5059904;28;20044;-73
2023/03/07 03:15:19;;;;;;;55.13;25.95;;;1.40;99.90;;;;;;5060235;28;20024;-73
2023/03/07 03:17:54;;;;;;;54.45;25.88;;;1.40;99.90;;;;;;5053500;28;20173;-73
2023/03/07 03:20:21;;;;;;;53.05;25.55;;;1.40;99.90;;;;;;5046571;28;20029;-73
2023/03/07 03:23:00;;;;;;;57.53;26.13;;;1.40;99.90;;;;;;5063644;28;20136;-73
2023/03/07 03:25:26;;;;;;;54.50;26.17;;;1.40;99.90;;;;;;5059107;28;20033;-73
2023/03/07 03:27:55;;;;;;;53.67;26.15;;;1.40;99.90;;;;;;5040937;28;20054;-73
2023/03/07 03:30:21;;;;;;;54.40;25.80;;;1.40;99.90;;;;;;5045712;28;20160;-73
2023/03/07 03:32:55;;;;;;;52.55;25.17;;;1.40;99.90;;;;;;5049742;28;20229;-73
2023/03/07 03:35:21;;;;;;;55.40;25.38;;;1.40;99.90;;;;;;5054631;28;20072;-73
2023/03/07 03:37:48;;;;;;;53.72;25.23;;;1.40;99.90;;;;;;5045672;28;20013;-74
2023/03/07 03:40:20;;;;;;;53.10;25.00;;;1.40;99.90;;;;;;5042581;28;20022;-73
2023/03/07 03:42:52;;;;;;;52.70;25.58;;;1.40;99.90;;;;;;5031605;28;20545;-73
2023/03/07 03:45:26;;;;;;;50.97;23.92;;;1.40;99.90;;;;;;5035468;28;20064;-73
2023/03/07 03:48:00;;;;;;;54.35;25.00;;;1.40;99.90;;;;;;5036406;28;20048;-73
2023/03/07 03:50:29;;;;;;;51.33;24.17;;;1.40;99.90;;;;;;5043504;28;20575;-73
2023/03/07 03:52:55;;;;;;;54.10;25.20;;;1.40;99.90;;;;;;5039556;28;20032;-73
2023/03/07 03:55:25;;;;;;;54.15;25.27;;;1.40;99.90;;;;;;5053483;28;20036;-73
2023/03/07 03:57:53;;;;;;;57.75;25.23;;;1.40;99.90;;;;;;5029326;28;20056;-73
2023/03/07 04:00:25;;;;;;;53.63;25.13;;;1.40;99.90;;;;;;5042665;28;20123;-73
2023/03/07 04:03:02;;;;;;;55.05;26.08;;;1.40;99.90;;;;;;5029915;28;20033;-72
2023/03/07 04:05:34;;;;;;;54.25;24.65;;;1.40;99.90;;;;;;5044252;28;20108;-73
2023/03/07 04:08:11;;;;;;;48.78;23.95;;;1.40;99.90;;;;;;5043763;28;20025;-73
2023/03/07 04:10:40;;;;;;;56.05;25.50;;;1.40;99.90;;;;;;5042008;28;20036;-73
2023/03/07 04:13:12;;;;;;;52.13;24.52;;;1.40;99.90;;;;;;5045297;28;20029;-73
2023/03/07 04:15:38;;;;;;;50.28;23.05;;;1.40;99.90;;;;;;5064445;28;20477;-73
2023/03/07 04:18:16;;;;;;;51.08;24.20;;;1.50;99.90;;;;;;5047459;28;20031;-73
2023/03/07 04:20:44;;;;;;;51.47;24.30;;;1.50;99.90;;;;;;5044769;28;20032;-73
2023/03/07 04:23:17;;;;;;;48.00;23.40;;;1.50;99.90;;;;;;5062822;28;20123;-73
2023/03/07 04:26:03;;;;;;;46.20;21.80;;;1.50;99.90;;;;;;5063844;28;20052;-73
2023/03/07 04:28:48;;;;;;;44.42;22.27;;;1.60;99.90;;;;;;5053116;28;20034;-73
2023/03/07 04:31:32;;;;;;;42.75;21.85;;;1.60;99.90;;;;;;5050499;28;20036;-73
2023/03/07 04:34:07;;;;;;;43.13;21.55;;;1.60;99.90;;;;;;5055534;28;20147;-73
2023/03/07 04:36:39;;;;;;;39.28;20.95;;;1.60;99.90;;;;;;5057414;28;20545;-73
2023/03/07 04:39:09;;;;;;;40.93;21.13;;;1.70;99.90;;;;;;5037014;28;20032;-73
2023/03/07 04:41:45;;;;;;;37.92;19.50;;;1.60;99.90;;;;;;5049283;28;20037;-73
2023/03/07 04:44:20;;;;;;;33.45;18.17;;;1.70;99.90;;;;;;5057775;28;20105;-73
2023/03/07 04:46:55;;;;;;;37.85;19.77;;;1.70;99.90;;;;;;5056409;28;20036;-73
2023/03/07 04:49:27;;;;;;;34.15;17.73;;;1.70;99.90;;;;;;5056164;28;20047;-73
2023/03/07 04:52:01;;;;;;;34.65;18.33;;;1.80;99.90;;;;;;5054993;28;20045;-73
2023/03/07 04:54:31;;;;;;;34.33;18.40;;;1.80;99.90;;;;;;5056696;28;20028;-73
2023/03/07 04:57:05;;;;;;;32.55;17.73;;;1.80;99.90;;;;;;5056623;28;20111;-73
2023/03/07 04:59:38;;;;;;;31.83;17.67;;;1.80;99.90;;;;;;5048587;28;20533;-73
2023/03/07 05:02:10;;;;;;;31.00;17.50;;;1.80;99.90;;;;;;5035070;28;20500;-73
2023/03/07 05:04:46;;;;;;;31.63;16.98;;;1.90;99.90;;;;;;5055880;28;20087;-73
2023/03/07 05:07:21;;;;;;;31.30;17.70;;;1.90;99.90;;;;;;5056376;28;20028;-73
2023/03/07 05:09:52;;;;;;;30.15;17.13;;;1.90;99.90;;;;;;5039217;28;20723;-74
2023/03/07 05:12:22;;;;;;;30.52;16.80;;;1.90;99.90;;;;;;5040934;28;20512;-73
2023/03/07 05:14:59;;;;;;;32.85;16.92;;;1.90;99.90;;;;;;5053480;28;20033;-73
2023/03/07 05:17:32;;;;;;;32.15;18.15;;;1.90;99.90;;;;;;5051213;28;20117;-73
2023/03/07 05:19:58;;;;;;;31.83;17.52;;;1.90;99.90;;;;;;5051569;28;20037;-73
2023/03/07 05:22:28;;;;;;;33.42;17.85;;;1.90;99.90;;;;;;5055080;28;20038;-73
2023/03/07 05:25:02;;;;;;;33.70;17.67;;;1.90;99.90;;;;;;5044671;28;20045;-73
2023/03/07 05:27:34;;;;;;;30.58;16.92;;;1.90;99.90;;;;;;5038384;28;20468;-73
2023/03/07 05:30:07;;;;;;;32.38;17.63;;;1.90;99.90;;;;;;5038284;28;20060;-73
2023/03/07 05:32:32;;;;;;;31.73;17.55;;;1.90;99.90;;;;;;5040293;28;20076;-73
2023/03/07 05:35:07;;;;;;;31.13;17.15;;;1.90;99.90;;;;;;5045292;28;20060;-73
2023/03/07 05:37:38;;;;;;;28.05;16.25;;;1.90;99.90;;;;;;5050586;28;20041;-73
2023/03/07 05:40:12;;;;;;;31.65;16.90;;;2.00;99.90;;;;;;5045871;28;20603;-73
2023/03/07 05:42:42;;;;;;;28.02;16.67;;;2.00;99.90;;;;;;5047445;28;20091;-73
2023/03/07 05:45:09;;;;;;;30.10;17.25;;;2.00;99.90;;;;;;5032942;28;20024;-73
2023/03/07 05:47:43;;;;;;;31.55;17.85;;;2.00;99.90;;;;;;5039264;28;20375;-73
2023/03/07 05:50:11;;;;;;;30.35;17.13;;;2.10;99.90;;;;;;5039809;28;20055;-73
2023/03/07 05:52:44;;;;;;;32.80;17.70;;;2.00;99.90;;;;;;5047756;28;20040;-73
2023/03/07 05:55:10;;;;;;;29.13;16.73;;;2.00;99.90;;;;;;5041841;28;20029;-73
2023/03/07 05:57:48;;;;;;;33.65;17.95;;;2.00;99.90;;;;;;5045528;28;20494;-73
2023/03/07 06:00:20;;;;;;;33.42;18.02;;;2.10;99.90;;;;;;5044280;28;20410;-73
2023/03/07 06:02:56;;;;;;;30.80;18.08;;;2.10;99.90;;;;;;5040984;28;20075;-73
2023/03/07 06:05:30;;;;;;;34.63;18.35;;;2.10;99.90;;;;;;5040968;28;20037;-73
2023/03/07 06:08:03;;;;;;;34.10;18.25;;;2.10;99.90;;;;;;5042570;28;20049;-73
2023/03/07 06:10:38;;;;;;;35.35;19.25;;;2.10;99.90;;;;;;5044437;28;20033;-73
2023/03/07 06:13:18;;;;;;;33.55;18.42;;;2.20;99.90;;;;;;5036834;28;20033;-73
2023/03/07 06:15:51;;;;;;;31.67;18.98;;;2.20;99.90;;;;;;5040475;28;20510;-73
2023/03/07 06:18:23;;;;;;;26.23;14.88;;;2.20;99.90;;;;;;5038279;28;20053;-73
2023/03/07 06:21:05;;;;;;;25.33;14.20;;;2.20;99.90;;;;;;5046852;28;20119;-73
2023/03/07 06:23:38;;;;;;;32.72;18.38;;;2.20;99.90;;;;;;5040815;28;20043;-73
2023/03/07 06:26:11;;;;;;;32.70;18.95;;;2.20;99.90;;;;;;5040934;28;20028;-73
2023/03/07 06:28:49;;;;;;;30.90;18.63;;;2.20;99.90;;;;;;5047577;28;20029;-73
2023/03/07 06:31:19;;;;;;;36.25;19.98;;;2.20;99.90;;;;;;5032278;28;20029;-73
2023/03/07 06:33:49;;;;;;;34.70;20.33;;;2.30;99.90;;;;;;5039490;28;20032;-73
2023/03/07 06:36:20;;;;;;;26.83;16.88;;;2.30;99.90;;;;;;5032185;28;20031;-73
2023/03/07 06:38:57;;;;;;;34.65;20.38;;;2.30;99.90;;;;;;5035951;28;20551;-73
2023/03/07 06:41:29;;;;;;;34.63;18.70;;;2.40;99.90;;;;;;5037473;28;20044;-73
2023/03/07 06:43:55;;;;;;;30.92;17.75;;;2.40;99.90;;;;;;5035619;28;20132;-73
2023/03/07 06:46:21;;;;;;;32.38;19.15;;;2.40;99.90;;;;;;5038184;28;20030;-73
2023/03/07 06:48:47;;;;;;;33.17;18.77;;;2.50;99.90;;;;;;5049029;28;20037;-73
2023/03/07 06:51:12;;;;;;;32.30;18.88;;;2.50;99.90;;;;;;5038866;28;20029;-73
2023/03/07 06:53:39;;;;;;;34.13;19.58;;;2.50;99.90;;;;;;5032280;28;20029;-73
2023/03/07 06:56:09;;;;;;;37.83;21.35;;;2.50;99.90;;;;;;5043126;28;20061;-73
2023/03/07 06:58:41;;;;;;;36.80;21.63;;;2.50;99.90;;;;;;5044935;28;20027;-73
2023/03/07 07:01:06;;;;;;;37.08;19.10;;;2.50;99.90;;;;;;5031900;28;20036;-73
2023/03/07 07:03:35;;;;;;;37.47;21.63;;;2.50;99.90;;;;;;5041339;28;20025;-73
2023/03/07 07:06:02;;;;;;;33.75;19.55;;;2.60;99.90;;;;;;5044035;28;20512;-73
2023/03/07 07:08:28;;;;;;;38.13;23.05;;;2.60;99.90;;;;;;5034586;28;20029;-73
2023/03/07 07:10:57;;;;;;;35.08;21.00;;;2.60;99.90;;;;;;5037602;28;20646;-73
2023/03/07 07:13:24;;;;;;;35.10;20.55;;;2.60;99.90;;;;;;5042574;28;20040;-73
2023/03/07 07:15:50;;;;;;;38.30;22.40;;;2.60;99.90;;;;;;5042691;28;20035;-74
2023/03/07 07:18:16;;;;;;;37.53;22.02;;;2.70;99.90;;;;;;5039665;28;20111;-73
2023/03/07 07:20:57;;;;;;;40.17;22.70;;;2.70;99.90;;;;;;5043180;28;20035;-73
2023/03/07 07:23:23;;;;;;;38.00;22.42;;;2.60;99.90;;;;;;5055730;28;20052;-73
2023/03/07 07:25:48;;;;;;;43.15;24.35;;;2.70;99.90;;;;;;5025725;28;20037;-73
2023/03/07 07:28:15;;;;;;;43.38;25.33;;;2.70;99.90;;;;;;5034328;28;20981;-73
2023/03/07 07:30:41;;;;;;;43.40;25.55;;;2.70;99.90;;;;;;5033064;28;20087;-73
2023/03/07 07:33:06;;;;;;;44.30;24.98;;;2.70;99.90;;;;;;5041679;28;20033;-74
2023/03/07 07:35:32;;;;;;;46.30;27.98;;;2.70;99.90;;;;;;5039202;28;20036;-74
2023/03/07 07:37:58;;;;;;;37.75;23.55;;;2.70;99.90;;;;;;5042184;28;20029;-73
2023/03/07 07:40:24;;;;;;;44.17;23.60;;;2.70;99.90;;;;;;5041944;28;20031;-74
2023/03/07 07:42:56;;;;;;;44.67;25.30;;;2.70;99.90;;;;;;5035450;28;20060;-73
2023/03/07 07:45:25;;;;;;;41.08;23.88;;;2.80;99.90;;;;;;5040797;28;20501;-73
2023/03/07 07:47:52;;;;;;;41.47;22.80;;;2.80;99.90;;;;;;5038249;28;20030;-73
2023/03/07 07:50:20;;;;;;;38.45;22.45;;;2.80;99.90;;;;;;5039855;28;20056;-73
2023/03/07 07:52:47;;;;;;;37.53;22.80;;;2.80;99.90;;;;;;5038813;28;20035;-73
2023/03/07 07:55:13;;;;;;;37.70;22.33;;;2.80;99.90;;;;;;5039401;28;20492;-73
2023/03/07 07:57:47;;;;;;;39.50;21.92;;;2.90;99.90;;;;;;5042431;28;20387;-73
2023/03/07 08:00:20;;;;;;;42.38;23.52;;;2.90;99.90;;;;;;5036880;28;20405;-73
2023/03/07 08:03:16;;;;;;;37.00;21.13;;;2.90;99.90;;;;;;5045957;28;20425;-79
2023/03/07 08:05:49;;;;;;;36.75;21.77;;;3.00;99.90;;;;;;5039256;28;20048;-79
2023/03/07 08:08:17;;;;;;;37.03;22.55;;;3.00;99.90;;;;;;5040230;28;20452;-79
2023/03/07 08:10:48;;;;;;;38.45;21.85;;;3.00;99.90;;;;;;5038746;28;20029;-79
2023/03/07 08:13:19;;;;;;;36.40;21.50;;;3.00;99.90;;;;;;5045360;28;20352;-79
2023/03/07 08:15:47;;;;;;;38.05;21.83;;;3.00;99.90;;;;;;5031165;28;20083;-79
2023/03/07 08:18:13;;;;;;;36.35;20.52;;;3.00;99.90;;;;;;5031130;28;20056;-79
2023/03/07 08:20:40;;;;;;;36.13;20.58;;;3.00;99.90;;;;;;5031282;28;20045;-79
2023/03/07 08:23:10;;;;;;;41.35;22.17;;;3.00;99.90;;;;;;5047625;28;20049;-79
2023/03/07 08:25:36;;;;;;;38.55;22.45;;;3.00;99.90;;;;;;5043435;28;20029;-79
2023/03/07 08:28:04;;;;;;;40.42;23.15;;;3.00;99.90;;;;;;5042414;28;20317;-79
2023/03/07 08:30:33;;;;;;;37.38;21.73;;;3.00;99.90;;;;;;5053243;28;20030;-79
2023/03/07 08:32:59;;;;;;;38.03;22.30;;;3.00;99.90;;;;;;5044649;28;20033;-79
2023/03/07 08:35:26;;;;;;;43.72;23.83;;;3.00;99.90;;;;;;5051994;28;20055;-79
2023/03/07 08:37:55;;;;;;;38.88;22.60;;;3.00;99.90;;;;;;5051766;28;20384;-79
2023/03/07 08:40:22;;;;;;;42.55;23.33;;;3.10;99.90;;;;;;5050804;28;20025;-78
2023/03/07 08:42:51;;;;;;;40.05;23.10;;;3.10;99.90;;;;;;5050664;28;20033;-78
2023/03/07 08:45:17;;;;;;;39.40;23.33;;;3.10;99.90;;;;;;5045158;28;20062;-80
2023/03/07 08:47:42;;;;;;;37.45;21.75;;;3.10;99.90;;;;;;5046705;28;20528;-79
2023/03/07 08:50:09;;;;;;;43.63;26.65;;;3.10;99.90;;;;;;5045914;28;20033;-79
2023/03/07 08:52:37;;;;;;;51.30;30.27;;;3.10;99.90;;;;;;5044533;28;20036;-79
2023/03/07 08:55:04;;;;;;;49.08;28.25;;;3.20;99.90;;;;;;5043421;28;20075;-79
2023/03/07 08:57:32;;;;;;;46.55;25.73;;;3.30;99.90;;;;;;5041022;28;20025;-79
2023/03/07 08:59:57;;;;;;;46.20;25.88;;;3.30;99.90;;;;;;5028251;28;20029;-78
2023/03/07 09:02:26;;;;;;;44.33;24.45;;;3.30;99.90;;;;;;5056171;28;20027;-79
2023/03/07 09:04:59;;;;;;;38.25;22.35;;;3.30;99.90;;;;;;5058554;28;20469;-79
2023/03/07 09:07:32;;;;;;;35.95;21.23;;;3.40;99.90;;;;;;5041883;28;20014;-79
2023/03/07 09:10:04;;;;;;;32.63;19.52;;;3.40;99.90;;;;;;5050531;28;20389;-80
2023/03/07 09:12:34;;;;;;;30.60;18.05;;;3.50;99.90;;;;;;5045396;28;20033;-79
2023/03/07 09:15:06;;;;;;;31.42;19.17;;;3.50;99.90;;;;;;5047753;28;20142;-79
2023/03/07 09:17:36;;;;;;;32.10;19.45;;;3.50;99.90;;;;;;5036915;28;20025;-80
2023/03/07 09:20:12;;;;;;;29.52;18.05;;;3.60;99.90;;;;;;5050142;28;20021;-80
2023/03/07 09:22:39;;;;;;;31.05;18.48;;;;;;;;;;5043898;28;20044;-78
2023/03/07 09:25:13;;;;;;;31.90;18.50;;;3.60;99.90;;;;;;5045130;28;20033;-81
2023/03/07 09:27:39;;;;;;;29.42;17.65;;;3.60;99.90;;;;;;5047399;28;20079;-81
2023/03/07 09:30:11;;;;;;;28.58;17.25;;;3.60;99.90;;;;;;5039138;28;20026;-80
2023/03/07 09:32:38;;;;;;;30.75;17.92;;;3.60;99.90;;;;;;5045797;28;20288;-81
2023/03/07 09:35:11;;;;;;;28.60;17.48;;;3.60;99.90;;;;;;5043231;28;20079;-76
2023/03/07 09:37:40;;;;;;;30.42;17.92;;;3.60;99.90;;;;;;5051143;28;20025;-81
2023/03/07 09:40:16;;;;;;;28.27;16.83;;;3.60;99.90;;;;;;5050071;28;20029;-78
2023/03/07 09:43:20;;;;;;;28.15;17.05;;;3.70;99.90;;;;;;5046543;28;20032;-78
2023/03/07 09:46:20;;;;;;;27.73;16.25;;;3.80;99.90;;;;;;5049223;28;20111;-78
2023/03/07 09:49:00;;;;;;;27.42;16.15;;;3.90;99.90;;;;;;5059393;28;20064;-78
2023/03/07 09:51:44;;;;;;;30.17;17.52;;;3.90;99.90;;;;;;5054163;28;20025;-78
2023/03/07 09:54:17;;;;;;;25.65;15.95;;;3.90;99.90;;;;;;5049207;28;20400;-78
2023/03/07 09:57:02;;;;;;;26.67;16.92;;;4.10;99.90;;;;;;5044273;28;20037;-77
2023/03/07 09:59:37;;;;;;;25.50;14.77;;;;;;;;;;5036925;28;20486;-79
2023/03/07 10:02:28;;;;;;;25.83;15.98;;;4.00;99.90;;;;;;5033451;28;20037;-77
2023/03/07 10:05:03;;;;;;;23.70;14.52;;;4.00;99.90;;;;;;5047629;28;20423;-79
2023/03/07 10:07:36;;;;;;;24.73;14.50;;;4.10;99.90;;;;;;5048992;28;20435;-81
2023/03/07 10:10:11;;;;;;;24.55;13.52;;;4.10;99.90;;;;;;5038059;28;20021;-78
2023/03/07 10:12:54;;;;;;;23.15;13.98;;;4.20;99.90;;;;;;5033681;28;20084;-79
2023/03/07 10:15:37;;;;;;;25.38;14.68;;;4.20;99.90;;;;;;5036815;28;20147;-83
2023/03/07 10:18:22;;;;;;;25.13;15.13;;;;;;;;;;5034508;28;20037;-84
2023/03/07 10:21:08;;;;;;;23.08;13.55;;;4.20;99.90;;;;;;5031341;28;20109;-81
2023/03/07 10:24:05;;;;;;;22.55;13.32;;;4.20;99.90;;;;;;5043827;28;20501;-81
2023/03/07 10:26:48;;;;;;;21.40;13.20;;;4.30;99.90;;;;;;5046930;28;20385;-83
2023/03/07 10:29:21;;;;;;;20.25;12.80;;;;;;;;;;5062625;28;20058;-81
2023/03/07 10:31:58;;;;;;;21.95;12.68;;;4.30;99.90;;;;;;5048798;28;20040;-83
2023/03/07 10:34:30;;;;;;;20.80;12.02;;;4.40;99.90;;;;;;5036657;28;20095;-79
2023/03/07 10:37:18;;;;;;;18.77;12.35;;;4.40;99.90;;;;;;5050291;28;20029;-81
2023/03/07 10:40:00;;;;;;;17.30;10.90;;;4.60;99.90;;;;;;5058411;28;20041;-82
2023/03/07 10:42:38;;;;;;;19.38;11.00;;;;;;;;;;5053526;28;20033;-80
2023/03/07 10:45:12;;;;;;;18.95;10.77;;;;;;;;;;5036509;28;20028;-82
2023/03/07 10:47:42;;;;;;;18.60;11.45;;;4.70;99.90;;;;;;5040697;28;20490;-88
2023/03/07 10:50:21;;;;;;;19.40;10.93;;;4.70;99.90;;;;;;5038833;28;20092;-81
2023/03/07 10:52:56;;;;;;;18.40;11.07;;;4.70;99.90;;;;;;5039010;28;20033;-85
2023/03/07 10:55:40;;;;;;;17.25;11.30;;;4.70;99.90;;;;;;5039225;28;20055;-82
2023/03/07 10:58:21;;;;;;;17.58;10.95;;;4.70;99.90;;;;;;5036976;28;20392;-82
2023/03/07 11:00:58;;;;;;;17.17;10.60;;;4.70;99.90;;;;;;5046493;28;20033;-81
2023/03/07 11:03:42;;;;;;;15.93;9.82;;;4.70;99.90;;;;;;5031738;28;20041;-82
2023/03/07 11:06:26;;;;;;;18.95;10.57;;;4.80;99.90;;;;;;5047620;28;20073;-82
2023/03/07 11:08:52;;;;;;;14.43;9.82;;;4.80;99.90;;;;;;5031097;28;20025;-82
2023/03/07 11:11:31;;;;;;;17.17;9.98;;;4.80;99.90;;;;;;5032610;28;20485;-82
2023/03/07 11:14:12;;;;;;;19.30;10.88;;;4.90;99.90;;;;;;5034127;28;20029;-82
2023/03/07 11:16:47;;;;;;;16.38;9.68;;;5.00;99.90;;;;;;5032751;28;20029;-82
2023/03/07 11:19:42;;;;;;;16.83;9.63;;;5.10;99.90;;;;;;5033654;28;20033;-82
2023/03/07 11:22:18;;;;;;;16.67;9.75;;;;;;;;;;5031261;28;20049;-82
2023/03/07 11:24:52;;;;;;;16.65;10.43;;;;;;;;;;5033882;28;20030;-82
2023/03/07 11:27:23;;;;;;;20.48;10.90;;;;;;;;;;5031837;28;20037;-80
2023/03/07 11:30:09;;;;;;;21.58;11.85;;;;;;;;;;5031052;28;20025;-82
2023/03/07 11:32:40;;;;;;;18.38;10.68;;;;;;;;;;5036071;28;20032;-82
2023/03/07 11:35:16;;;;;;;17.20;10.73;;;;;;;;;;5036886;28;20029;-80
2023/03/07 11:37:51;;;;;;;16.95;9.95;;;;;;;;;;5043760;28;20028;-81
2023/03/07 11:40:21;;;;;;;15.73;10.02;;;;;;;;;;5042443;28;20159;-81
2023/03/07 11:42:59;;;;;;;16.63;9.88;;;;;;;;;;5046350;28;20508;-80
2023/03/07 11:45:42;;;;;;;15.40;9.10;;;5.20;99.90;;;;;;5055207;28;20059;-81
2023/03/07 11:48:14;;;;;;;16.02;9.95;;;5.20;99.90;;;;;;5038504;28;20068;-81
2023/03/07 11:50:56;;;;;;;17.95;10.95;;;5.10;99.90;;;;;;5055253;28;20118;-81
2023/03/07 11:53:29;;;;;;;13.60;8.70;;;5.20;99.90;;;;;;5053534;28;20043;-81
2023/03/07 11:56:05;;;;;;;15.10;9.40;;;5.20;99.90;;;;;;5039917;28;20029;-81
2023/03/07 11:58:55;;;;;;;14.70;9.07;;;5.20;99.90;;;;;;5042303;28;20094;-81
2023/03/07 12:01:56;;;;;;;13.85;9.00;;;5.20;99.90;;;;;;5034482;28;20548;-80
2023/03/07 12:04:36;;;;;;;12.35;8.55;;;5.20;99.90;;;;;;5046628;28;20076;-78
2023/03/07 12:07:26;;;;;;;18.10;10.75;;;5.30;99.90;;;;;;5050893;28;20444;-79
2023/03/07 12:10:00;;;;;;;12.88;7.85;;;5.30;99.90;;;;;;5035158;28;20025;-80
2023/03/07 12:12:52;;;;;;;13.63;8.63;;;5.40;99.90;;;;;;5038671;28;20435;-82
2023/03/07 12:15:24;;;;;;;12.15;7.70;;;5.50;99.90;;;;;;5048945;28;20034;-82
2023/03/07 12:18:05;;;;;;;13.18;7.95;;;5.40;99.90;;;;;;5043694;28;20025;-80
2023/03/07 12:20:52;;;;;;;15.05;8.90;;;5.40;99.90;;;;;;5042835;28;20047;-80
2023/03/07 12:23:24;;;;;;;10.93;8.05;;;5.40;99.90;;;;;;5047865;28;20068;-80
2023/03/07 12:26:31;;;;;;;13.23;8.90;;;5.40;99.90;;;;;;5039479;28;20452;-81
2023/03/07 12:29:19;;;;;;;12.27;7.93;;;5.40;99.90;;;;;;5036510;28;20109;-79
2023/03/07 12:31:49;;;;;;;14.50;8.13;;;5.40;99.90;;;;;;5039785;28;20057;-79
2023/03/07 12:34:30;;;;;;;13.50;8.48;;;5.40;99.90;;;;;;5042144;28;20062;-79
2023/03/07 12:37:31;;;;;;;12.48;7.68;;;5.40;99.90;;;;;;5044270;28;20052;-79
2023/03/07 12:40:15;;;;;;;12.90;8.82;;;5.50;99.90;;;;;;5043553;28;20046;-82
2023/03/07 12:43:00;;;;;;;15.30;9.07;;;5.50;99.90;;;;;;5053872;28;20029;-81
2023/03/07 12:45:41;;;;;;;15.00;8.57;;;5.60;99.90;;;;;;5054875;28;20032;-81
2023/03/07 12:48:18;;;;;;;11.77;8.00;;;5.60;99.90;;;;;;5045675;28;20028;-82
2023/03/07 12:51:29;;;;;;;12.48;8.25;;;5.70;99.90;;;;;;5040171;28;20036;-81
2023/03/07 12:54:26;;;;;;;12.52;7.63;;;5.60;99.90;;;;;;5041198;28;20601;-83
2023/03/07 12:57:12;;;;;;;12.55;8.32;;;5.60;99.90;;;;;;5044142;28;20038;-82
2023/03/07 12:59:41;;;;;;;14.18;8.48;;;5.60;99.90;;;;;;5048036;28;20033;-82
2023/03/07 13:02:20;;;;;;;14.40;8.45;;;5.60;99.90;;;;;;5055955;28;21142;-84
2023/03/07 13:04:47;;;;;;;14.50;8.43;;;5.50;99.90;;;;;;5039893;28;20036;-81
2023/03/07 13:07:23;;;;;;;14.07;8.55;;;5.50;99.90;;;;;;5043862;28;20124;-81
2023/03/07 13:09:53;;;;;;;15.18;8.85;;;5.40;99.90;;;;;;5047207;28;20042;-83
2023/03/07 13:12:24;;;;;;;14.23;9.40;;;5.50;99.90;;;;;;5051843;28;20032;-77
2023/03/07 13:14:55;;;;;;;14.52;8.88;;;;;;;;;;5047201;28;20036;-81
2023/03/07 13:17:30;;;;;;;13.52;8.57;;;5.40;99.90;;;;;;5048036;28;20025;-83